createdAt,value
2022-12-27T00:01:20.634Z,2.55
2022-12-27T00:03:48.482Z,2.95
2022-12-27T00:06:21.898Z,3.00
2022-12-27T00:08:49.225Z,2.50
2022-12-27T00:11:21.769Z,2.90
2022-12-27T00:13:49.427Z,2.60
2022-12-27T00:16:20.622Z,2.78
2022-12-27T00:18:49.447Z,2.85
2022-12-27T00:21:18.067Z,2.33
2022-12-27T00:23:49.203Z,2.75
2022-12-27T00:26:26.743Z,2.58
2022-12-27T00:28:54.711Z,2.90
2022-12-27T00:31:24.395Z,3.15
2022-12-27T00:33:59.573Z,2.60
2022-12-27T00:36:30.143Z,2.45
2022-12-27T00:38:59.682Z,3.15
2022-12-27T00:41:27.612Z,3.70
2022-12-27T00:43:54.997Z,6.18
2022-12-27T00:46:22.251Z,3.40
2022-12-27T00:48:49.491Z,3.08
2022-12-27T00:51:22.440Z,3.00
2022-12-27T00:53:52.187Z,2.85
2022-12-27T00:56:31.290Z,2.92
2022-12-27T00:59:01.377Z,3.42
2022-12-27T01:01:35.124Z,3.60
2022-12-27T01:04:04.023Z,3.03
2022-12-27T01:06:34.245Z,3.30
2022-12-27T01:09:03.532Z,3.20
2022-12-27T01:11:32.070Z,3.10
2022-12-27T01:14:02.225Z,3.45
2022-12-27T01:16:31.356Z,2.88
2022-12-27T01:18:59.741Z,2.97
2022-12-27T01:21:30.509Z,2.63
2022-12-27T01:23:58.453Z,2.70
2022-12-27T01:26:26.073Z,3.10
2022-12-27T01:28:54.465Z,2.65
2022-12-27T01:31:29.875Z,2.60
2022-12-27T01:33:59.677Z,2.65
2022-12-27T01:36:29.151Z,2.53
2022-12-27T01:38:56.608Z,2.60
2022-12-27T01:41:55.989Z,2.50
2022-12-27T01:44:49.045Z,2.58
2022-12-27T01:47:51.522Z,2.40
2022-12-27T01:50:35.826Z,3.03
2022-12-27T01:53:33.074Z,3.42
2022-12-27T01:56:07.706Z,2.60
2022-12-27T01:59:04.460Z,3.17
2022-12-27T02:01:46.497Z,2.97
2022-12-27T02:04:18.944Z,3.17
2022-12-27T02:06:48.210Z,3.65
2022-12-27T02:09:34.220Z,3.50
2022-12-27T02:12:06.523Z,3.25
2022-12-27T02:14:39.743Z,3.67
2022-12-27T02:17:22.653Z,4.47
2022-12-27T02:20:14.299Z,4.07
2022-12-27T02:23:36.091Z,4.32
2022-12-27T02:26:26.251Z,3.90
2022-12-27T02:29:30.581Z,4.45
2022-12-27T02:32:14.603Z,4.75
2022-12-27T02:35:05.803Z,4.97
2022-12-27T02:37:43.333Z,4.97
2022-12-27T02:40:33.545Z,7.60
2022-12-27T02:43:20.423Z,6.57
2022-12-27T02:46:56.469Z,5.78
2022-12-27T02:49:55.281Z,5.18
2022-12-27T02:53:05.574Z,6.35
2022-12-27T02:56:51.334Z,6.07
2022-12-27T03:00:09.191Z,5.90
2022-12-27T03:03:26.514Z,6.18
2022-12-27T03:06:28.269Z,6.20
2022-12-27T03:09:38.918Z,6.30
2022-12-27T03:12:47.743Z,5.82
2022-12-27T03:15:54.950Z,6.50
2022-12-27T03:18:35.547Z,6.35
2022-12-27T03:21:24.763Z,6.50
2022-12-27T03:24:14.911Z,6.22
2022-12-27T03:26:47.394Z,6.30
2022-12-27T03:29:39.138Z,5.47
2022-12-27T03:32:30.686Z,7.22
2022-12-27T03:35:13.804Z,6.78
2022-12-27T03:38:04.979Z,5.93
2022-12-27T03:41:05.258Z,5.80
2022-12-27T03:43:36.153Z,5.80
2022-12-27T03:46:34.144Z,6.38
2022-12-27T03:49:21.838Z,6.63
2022-12-27T03:52:03.795Z,7.32
2022-12-27T03:54:37.679Z,7.35
2022-12-27T03:57:11.369Z,7.03
2022-12-27T03:59:39.176Z,6.05
2022-12-27T04:02:07.386Z,6.05
2022-12-27T04:04:35.753Z,6.47
2022-12-27T04:07:04.582Z,6.22
2022-12-27T04:09:50.366Z,6.28
2022-12-27T04:12:36.733Z,7.00
2022-12-27T04:15:23.262Z,5.47
2022-12-27T04:18:09.194Z,5.63
2022-12-27T04:20:55.050Z,5.40
2022-12-27T04:23:41.025Z,5.53
2022-12-27T04:26:27.901Z,5.28
2022-12-27T04:29:13.728Z,4.35
2022-12-27T04:31:59.359Z,4.97
2022-12-27T04:34:44.586Z,4.53
2022-12-27T04:37:19.103Z,4.80
2022-12-27T04:40:07.839Z,4.40
2022-12-27T04:42:53.607Z,4.10
2022-12-27T04:45:40.109Z,4.15
2022-12-27T04:48:37.613Z,5.00
2022-12-27T04:51:23.382Z,4.90
2022-12-27T04:54:08.906Z,4.43
2022-12-27T04:56:36.064Z,5.15
2022-12-27T04:59:22.115Z,4.55
2022-12-27T05:02:04.568Z,4.75
2022-12-27T05:04:36.342Z,4.25
2022-12-27T05:07:28.089Z,4.68
2022-12-27T05:10:14.947Z,4.65
2022-12-27T05:13:01.007Z,6.72
2022-12-27T05:15:28.134Z,4.40
2022-12-27T05:17:57.797Z,5.25
2022-12-27T05:20:24.967Z,5.60
2022-12-27T05:23:10.847Z,4.88
2022-12-27T05:25:43.420Z,5.75
2022-12-27T05:28:12.937Z,5.55
2022-12-27T05:30:43.362Z,5.80
2022-12-27T05:33:11.081Z,5.70
2022-12-27T05:35:39.237Z,6.13
2022-12-27T05:38:06.841Z,6.18
2022-12-27T05:40:34.339Z,6.32
2022-12-27T05:43:03.383Z,7.20
2022-12-27T05:45:31.033Z,6.35
2022-12-27T05:47:59.719Z,6.82
2022-12-27T05:50:27.834Z,9.20
2022-12-27T05:52:56.133Z,7.45
2022-12-27T05:55:23.509Z,7.10
2022-12-27T05:57:50.656Z,6.65
2022-12-27T06:00:17.909Z,6.53
2022-12-27T06:02:45.376Z,6.65
2022-12-27T06:05:12.795Z,7.35
2022-12-27T06:07:39.955Z,8.05
2022-12-27T06:10:09.290Z,7.78
2022-12-27T06:12:37.557Z,8.23
2022-12-27T06:15:06.934Z,7.97
2022-12-27T06:17:34.262Z,7.97
2022-12-27T06:20:01.385Z,8.30
2022-12-27T06:22:28.651Z,8.25
2022-12-27T06:24:55.805Z,7.97
2022-12-27T06:27:23.026Z,8.98
2022-12-27T06:29:50.188Z,11.95
2022-12-27T06:32:17.746Z,8.65
2022-12-27T06:34:45.428Z,8.50
2022-12-27T06:37:12.752Z,8.18
2022-12-27T06:39:40.425Z,12.38
2022-12-27T06:42:07.591Z,8.13
2022-12-27T06:44:34.764Z,7.10
2022-12-27T06:47:02.824Z,7.85
2022-12-27T06:49:29.994Z,7.00
2022-12-27T06:51:59.796Z,6.88
2022-12-27T06:54:27.706Z,6.38
2022-12-27T06:56:56.793Z,6.70
2022-12-27T06:59:24.363Z,6.50
2022-12-27T07:01:51.662Z,6.35
2022-12-27T07:04:18.925Z,7.03
2022-12-27T07:06:46.096Z,6.32
2022-12-27T07:09:13.310Z,6.13
2022-12-27T07:11:40.471Z,6.38
2022-12-27T07:14:09.636Z,6.15
2022-12-27T07:16:37.501Z,5.90
2022-12-27T07:19:04.976Z,6.25
2022-12-27T07:21:32.367Z,6.45
2022-12-27T07:23:59.661Z,6.47
2022-12-27T07:26:30.561Z,5.85
2022-12-27T07:29:01.354Z,5.93
2022-12-27T07:31:32.299Z,6.57
2022-12-27T07:34:02.999Z,6.03
2022-12-27T07:36:36.909Z,6.40
2022-12-27T07:39:05.619Z,6.03
2022-12-27T07:41:33.423Z,6.32
2022-12-27T07:44:00.604Z,6.10
2022-12-27T07:46:27.979Z,6.15
2022-12-27T07:48:57.896Z,6.20
2022-12-27T07:51:27.089Z,6.88
2022-12-27T07:53:55.514Z,6.82
2022-12-27T07:56:27.167Z,6.60
2022-12-27T07:59:00.180Z,6.60
2022-12-27T08:01:54.837Z,6.13
2022-12-27T08:04:22.039Z,5.82
2022-12-27T08:06:49.427Z,6.60
2022-12-27T08:09:24.054Z,6.43
2022-12-27T08:11:51.343Z,5.90
2022-12-27T08:14:18.487Z,6.53
2022-12-27T08:16:45.651Z,6.40
2022-12-27T08:19:12.888Z,6.50
2022-12-27T08:21:40.013Z,6.25
2022-12-27T08:24:07.257Z,6.78
2022-12-27T08:26:34.422Z,5.90
2022-12-27T08:29:01.560Z,6.47
2022-12-27T08:31:28.686Z,5.85
2022-12-27T08:33:58.665Z,5.75
2022-12-27T08:36:54.032Z,5.65
2022-12-27T08:39:13.168Z,5.53
2022-12-27T08:41:40.290Z,5.43
2022-12-27T08:44:08.421Z,5.63
2022-12-27T08:46:36.069Z,5.03
2022-12-27T08:49:04.601Z,5.53
2022-12-27T08:51:40.345Z,5.20
2022-12-27T08:54:09.350Z,5.43
2022-12-27T08:56:36.601Z,5.22
2022-12-27T08:59:03.857Z,5.50
2022-12-27T09:01:31.119Z,5.25
2022-12-27T09:03:58.468Z,5.78
2022-12-27T09:06:25.805Z,6.10
2022-12-27T09:08:54.647Z,6.30
2022-12-27T09:11:33.086Z,5.82
2022-12-27T09:14:04.060Z,6.45
2022-12-27T09:16:34.047Z,5.82
2022-12-27T09:19:01.798Z,5.95
2022-12-27T09:21:32.304Z,6.72
2022-12-27T09:23:59.650Z,6.15
2022-12-27T09:26:29.803Z,6.35
2022-12-27T09:28:58.047Z,6.60
2022-12-27T09:31:26.228Z,7.32
2022-12-27T09:33:54.475Z,6.38
2022-12-27T09:36:28.472Z,6.80
2022-12-27T09:38:57.815Z,6.38
2022-12-27T09:42:49.597Z,6.22
2022-12-27T09:45:19.599Z,6.38
2022-12-27T09:48:01.136Z,6.40
2022-12-27T09:50:33.784Z,5.95
2022-12-27T09:53:24.880Z,6.40
2022-12-27T09:55:57.878Z,5.80
2022-12-27T10:01:40.551Z,6.03
2022-12-27T10:04:17.751Z,6.53
2022-12-27T10:06:50.538Z,7.40
2022-12-27T10:09:55.063Z,6.47
2022-12-27T10:12:58.971Z,6.90
2022-12-27T10:16:04.840Z,6.03
2022-12-27T10:19:05.843Z,6.28
2022-12-27T10:21:41.491Z,6.15
2022-12-27T10:24:47.525Z,6.20
2022-12-27T10:27:21.567Z,5.68
2022-12-27T10:29:52.848Z,6.00
2022-12-27T10:32:20.210Z,6.25
2022-12-27T10:34:57.595Z,6.43
2022-12-27T10:37:24.756Z,6.30
2022-12-27T10:39:52.004Z,5.75
2022-12-27T10:42:42.045Z,6.40
2022-12-27T10:45:33.670Z,5.95
2022-12-27T10:48:23.039Z,5.80
2022-12-27T10:51:01.151Z,6.07
2022-12-27T10:53:34.084Z,6.00
2022-12-27T10:56:30.491Z,5.90
2022-12-27T10:59:26.875Z,6.10
2022-12-27T11:02:19.655Z,5.28
2022-12-27T11:04:59.707Z,5.32
2022-12-27T11:07:34.883Z,6.00
2022-12-27T11:10:17.919Z,5.10
2022-12-27T11:13:18.155Z,5.55
2022-12-27T11:15:58.957Z,4.72
2022-12-27T11:18:26.589Z,4.85
2022-12-27T11:20:57.875Z,4.55
2022-12-27T11:23:36.263Z,4.53
2022-12-27T11:26:06.563Z,4.32
2022-12-27T11:28:52.827Z,4.38
2022-12-27T11:31:32.926Z,4.05
2022-12-27T11:34:08.644Z,4.50
2022-12-27T11:36:40.572Z,4.50
2022-12-27T11:39:47.634Z,4.60
2022-12-27T11:42:38.507Z,4.95
2022-12-27T11:45:39.284Z,4.90
2022-12-27T11:48:24.965Z,5.50
2022-12-27T11:51:10.985Z,5.15
2022-12-27T11:54:34.467Z,5.97
2022-12-27T11:57:40.946Z,5.47
2022-12-27T12:00:29.168Z,5.10
2022-12-27T12:03:48.783Z,4.80
2022-12-27T12:06:47.873Z,5.13
2022-12-27T12:09:48.450Z,5.40
2022-12-27T12:12:56.132Z,4.85
2022-12-27T12:15:58.045Z,4.90
2022-12-27T12:19:03.207Z,5.47
2022-12-27T12:22:09.901Z,4.60
2022-12-27T12:25:18.701Z,4.80
2022-12-27T12:29:00.791Z,4.30
2022-12-27T12:32:40.303Z,4.32
2022-12-27T12:35:43.760Z,3.70
2022-12-27T12:38:40.375Z,3.90
2022-12-27T12:41:49.019Z,3.67
2022-12-27T12:44:41.886Z,4.00
2022-12-27T12:47:56.374Z,4.18
2022-12-27T12:50:41.090Z,4.38
2022-12-27T12:53:26.719Z,5.43
2022-12-27T12:56:12.754Z,4.43
2022-12-27T12:59:36.709Z,5.07
2022-12-27T13:03:09.933Z,5.03
2022-12-27T13:07:08.091Z,4.97
2022-12-27T13:10:36.189Z,5.15
2022-12-27T13:13:25.855Z,5.40
2022-12-27T13:16:21.210Z,4.82
2022-12-27T13:19:30.162Z,6.32
2022-12-27T13:22:16.508Z,7.05
2022-12-27T13:25:14.515Z,5.07
2022-12-27T13:28:17.871Z,5.47
2022-12-27T13:31:18.823Z,5.35
2022-12-27T13:34:33.916Z,4.90
2022-12-27T13:37:22.464Z,4.60
2022-12-27T13:40:10.946Z,5.32
2022-12-27T13:43:09.813Z,5.18
2022-12-27T13:46:13.573Z,5.22
2022-12-27T13:51:47.546Z,5.07
2022-12-27T13:55:00.411Z,5.80
2022-12-27T13:58:15.019Z,5.45
2022-12-27T14:01:08.849Z,4.40
2022-12-27T14:03:53.956Z,5.47
2022-12-27T14:07:18.112Z,4.53
2022-12-27T14:10:11.121Z,4.57
2022-12-27T14:12:53.787Z,4.63
2022-12-27T14:15:28.438Z,4.10
2022-12-27T14:18:15.418Z,3.83
2022-12-27T14:21:35.569Z,4.05
2022-12-27T14:25:03.513Z,4.95
2022-12-27T14:28:04.028Z,4.25
2022-12-27T14:31:18.440Z,5.30
2022-12-27T14:34:32.141Z,4.05
2022-12-27T14:38:06.119Z,3.97
2022-12-27T14:41:36.815Z,4.30
2022-12-27T14:44:47.322Z,4.15
2022-12-27T14:48:00.611Z,4.03
2022-12-27T14:50:57.005Z,2.95
2022-12-27T14:54:11.544Z,4.13
2022-12-27T14:57:01.938Z,3.90
2022-12-27T15:00:04.336Z,4.38
2022-12-27T15:02:56.750Z,4.88
2022-12-27T15:06:19.361Z,5.25
2022-12-27T15:09:13.537Z,5.03
2022-12-27T15:11:48.446Z,5.20
2022-12-27T15:14:37.167Z,4.70
2022-12-27T15:17:25.046Z,4.57
2022-12-27T15:20:24.771Z,4.45
2022-12-27T15:23:34.085Z,4.78
2022-12-27T15:26:29.882Z,4.57
2022-12-27T15:29:37.968Z,4.53
2022-12-27T15:32:36.891Z,6.22
2022-12-27T15:35:44.504Z,5.30
2022-12-27T15:38:18.343Z,4.68
2022-12-27T15:41:04.377Z,4.50
2022-12-27T15:43:58.543Z,6.90
2022-12-27T15:47:22.447Z,6.30
2022-12-27T15:50:10.407Z,5.25
2022-12-27T15:52:46.247Z,5.47
2022-12-27T15:55:54.997Z,5.65
2022-12-27T15:58:25.031Z,5.65
2022-12-27T16:01:23.894Z,6.45
2022-12-27T16:03:54.670Z,7.38
2022-12-27T16:06:33.960Z,7.80
2022-12-27T16:09:35.822Z,8.13
2022-12-27T16:12:30.818Z,8.65
2022-12-27T16:15:43.444Z,9.35
2022-12-27T16:18:16.653Z,9.35
2022-12-27T16:23:51.006Z,9.82
2022-12-27T16:26:26.129Z,10.32
2022-12-27T16:29:11.434Z,12.93
2022-12-27T16:31:47.652Z,16.33
2022-12-27T16:34:25.091Z,21.60
2022-12-27T16:36:55.262Z,34.70
2022-12-27T16:40:16.505Z,42.03
2022-12-27T16:42:58.577Z,32.20
2022-12-27T16:45:53.213Z,24.13
2022-12-27T16:49:25.847Z,15.60
2022-12-27T16:52:01.916Z,12.70
2022-12-27T16:55:12.429Z,13.27
2022-12-27T16:57:44.173Z,12.07
2022-12-27T17:00:11.346Z,12.65
2022-12-27T17:02:46.189Z,14.35
2022-12-27T17:05:16.137Z,13.23
2022-12-27T17:07:57.856Z,14.50
2022-12-27T17:10:24.906Z,14.65
2022-12-27T17:13:04.525Z,16.13
2022-12-27T17:15:32.388Z,17.98
2022-12-27T17:18:26.262Z,17.02
2022-12-27T17:21:06.515Z,16.70
2022-12-27T17:23:41.396Z,18.67
2022-12-27T17:26:22.698Z,19.75
2022-12-27T17:29:12.724Z,21.90
2022-12-27T17:32:05.676Z,21.45
2022-12-27T17:35:00.319Z,16.25
2022-12-27T17:38:18.276Z,22.15
2022-12-27T17:41:38.960Z,21.75
2022-12-27T17:45:10.918Z,20.98
2022-12-27T17:48:21.783Z,21.05
2022-12-27T17:50:54.423Z,20.88
2022-12-27T17:53:43.441Z,22.45
2022-12-27T17:56:28.914Z,26.77
2022-12-27T17:59:11.797Z,22.40
2022-12-27T18:01:50.392Z,22.73
2022-12-27T18:04:25.406Z,21.35
2022-12-27T18:07:00.253Z,20.88
2022-12-27T18:09:33.262Z,20.90
2022-12-27T18:14:33.713Z,19.48
2022-12-27T18:17:01.582Z,18.20
2022-12-27T18:19:31.373Z,19.02
2022-12-27T18:22:02.805Z,19.08
2022-12-27T18:24:33.302Z,15.68
2022-12-27T18:27:17.759Z,16.73
2022-12-27T18:29:46.313Z,16.95
2022-12-27T18:32:17.630Z,17.75
2022-12-27T18:34:54.198Z,17.10
2022-12-27T18:37:24.736Z,17.35
2022-12-27T18:40:00.051Z,17.08
2022-12-27T18:42:34.554Z,19.27
2022-12-27T18:45:15.610Z,18.10
2022-12-27T18:47:49.255Z,16.58
2022-12-27T18:50:23.610Z,15.77
2022-12-27T18:53:23.472Z,16.10
2022-12-27T18:56:13.533Z,14.82
2022-12-27T18:58:41.649Z,15.25
2022-12-27T19:01:20.948Z,14.93
2022-12-27T19:04:19.002Z,13.93
2022-12-27T19:06:55.600Z,15.27
2022-12-27T19:09:30.920Z,14.15
2022-12-27T19:12:03.214Z,12.45
2022-12-27T19:14:46.015Z,13.80
2022-12-27T19:17:30.563Z,12.45
2022-12-27T19:20:03.642Z,11.50
2022-12-27T19:22:55.226Z,11.52
2022-12-27T19:25:31.913Z,14.35
2022-12-27T19:28:10.964Z,12.65
2022-12-27T19:31:03.165Z,19.73
2022-12-27T19:33:34.383Z,13.07
2022-12-27T19:36:07.621Z,10.13
2022-12-27T19:38:35.215Z,9.52
2022-12-27T19:41:04.298Z,9.05
2022-12-27T19:43:39.989Z,7.95
2022-12-27T19:46:07.535Z,8.23
2022-12-27T19:48:34.789Z,8.15
2022-12-27T19:51:01.923Z,7.13
2022-12-27T19:53:41.401Z,8.20
2022-12-27T19:56:10.544Z,6.78
2022-12-27T19:58:37.778Z,5.95
2022-12-27T20:01:05.102Z,5.40
2022-12-27T20:03:32.460Z,5.15
2022-12-27T20:06:12.474Z,5.70
2022-12-27T20:08:50.583Z,6.38
2022-12-27T20:11:21.527Z,5.60
2022-12-27T20:13:49.978Z,5.50
2022-12-27T20:16:19.852Z,5.10
2022-12-27T20:18:47.296Z,5.03
2022-12-27T20:21:17.561Z,7.40
2022-12-27T20:23:45.309Z,4.20
2022-12-27T20:26:16.293Z,4.50
2022-12-27T20:28:43.438Z,3.83
2022-12-27T20:31:14.924Z,4.28
2022-12-27T20:33:42.423Z,12.43
2022-12-27T20:36:10.852Z,5.13
2022-12-27T20:38:39.693Z,4.82
2022-12-27T20:41:13.933Z,4.75
2022-12-27T20:43:41.638Z,4.50
2022-12-27T20:46:17.715Z,3.75
2022-12-27T20:48:46.514Z,4.63
2022-12-27T20:51:24.054Z,3.83
2022-12-27T20:53:59.783Z,4.20
2022-12-27T20:56:27.822Z,3.80
2022-12-27T20:58:55.142Z,4.10
2022-12-27T21:01:25.770Z,4.10
2022-12-27T21:03:55.954Z,3.30
2022-12-27T21:06:27.313Z,3.38
2022-12-27T21:08:57.708Z,3.38
2022-12-27T21:11:32.022Z,3.60
2022-12-27T21:14:04.738Z,3.40
2022-12-27T21:16:35.036Z,3.58
2022-12-27T21:19:04.694Z,3.60
2022-12-27T21:21:36.020Z,4.88
2022-12-27T21:24:04.279Z,3.33
2022-12-27T21:26:36.479Z,3.20
2022-12-27T21:29:06.555Z,3.40
2022-12-27T21:31:35.824Z,3.80
2022-12-27T21:34:04.671Z,3.38
2022-12-27T21:36:34.009Z,3.30
2022-12-27T21:39:04.498Z,3.05
2022-12-27T21:41:36.144Z,3.50
2022-12-27T21:44:04.259Z,3.70
2022-12-27T21:46:36.397Z,3.58
2022-12-27T21:49:10.855Z,3.40
2022-12-27T21:51:40.000Z,3.17
2022-12-27T21:54:07.725Z,3.60
2022-12-27T21:56:34.949Z,3.33
2022-12-27T21:59:05.360Z,4.00
2022-12-27T22:01:51.522Z,3.58
2022-12-27T22:04:21.162Z,3.40
2022-12-27T22:06:48.853Z,3.85
2022-12-27T22:09:16.314Z,4.13
2022-12-27T22:11:43.503Z,4.38
2022-12-27T22:14:10.670Z,4.00
2022-12-27T22:16:39.552Z,3.90
2022-12-27T22:19:10.396Z,4.50
2022-12-27T22:21:39.693Z,6.38
2022-12-27T22:24:10.190Z,5.28
2022-12-27T22:26:37.716Z,5.00
2022-12-27T22:29:06.487Z,7.70
2022-12-27T22:31:36.596Z,5.80
2022-12-27T22:34:05.050Z,4.47
2022-12-27T22:36:33.035Z,4.75
2022-12-27T22:39:01.399Z,3.58
2022-12-27T22:41:34.639Z,3.88
2022-12-27T22:44:09.809Z,4.05
2022-12-27T22:49:26.239Z,3.85
2022-12-27T22:51:53.403Z,3.97
2022-12-27T22:54:20.670Z,3.80
2022-12-27T22:57:07.765Z,4.03
2022-12-27T22:59:34.891Z,3.92
2022-12-27T23:02:02.178Z,3.83
2022-12-27T23:04:29.494Z,4.47
2022-12-27T23:06:56.744Z,4.10
2022-12-27T23:09:23.876Z,5.32
2022-12-27T23:11:51.024Z,5.00
2022-12-27T23:14:18.196Z,4.90
2022-12-27T23:16:49.886Z,6.15
2022-12-27T23:19:21.559Z,5.32
2022-12-27T23:21:49.109Z,4.78
2022-12-27T23:24:16.716Z,4.53
2022-12-27T23:26:43.879Z,4.38
2022-12-27T23:29:13.087Z,4.80
2022-12-27T23:31:54.295Z,4.75
2022-12-27T23:34:28.388Z,4.10
2022-12-27T23:36:58.423Z,4.43
2022-12-27T23:39:26.500Z,4.30
2022-12-27T23:41:54.335Z,4.70
2022-12-27T23:44:34.322Z,4.90
2022-12-27T23:47:06.346Z,4.30
2022-12-27T23:49:34.338Z,4.50
2022-12-27T23:52:01.619Z,4.22
2022-12-27T23:54:28.868Z,4.53
2022-12-27T23:56:56.315Z,4.70
2022-12-27T23:59:23.503Z,4.63
